logo
Search for airport 
image banner adimage banner adimage banner ad
image banner ad

FLAE - Forest Inn

Located in Chitiwa, Zambia

ICAO - , IATA -

Data provided by Airmate  

General information

Coordinates: S13°43'28" E29°9'31"
Elevation is 4076 feet MSL.
Magnetic variation is -4° East
View others Airports in Central Province

Operational data

Special qualification required
Current time UTC:
Current local time:
Weather at : - ( 0 km )
METAR: UBBN 202207Z 07008KT 9999 FEW046 SCT100 15/08 Q1009 NOSIG
View NOTAMs / SUP AIP / TFR affecting this airport [VIEW]
Communications frequencies: [VIEW]

Runways:

RWY identifierQFULength (ft)Width (ft)SurfaceLDA (ft)
0660°394882GRAS
24240°394882GRAS

Airport contact information

Address: Chitiwa Zambia

Satellite view of FLAE